Time;durP1;ratioP1;P1;durP2;ratioP2;P2;SDS_P1;SDS_P2;PMS_P1;PMS_P2;Temp;Humidity;BMP_temperature;BMP_pressure;BME280_temperature;BME280_humidity;BME280_pressure;Samples;Min_cycle;Max_cycle;Signal;HPM_P1;HPM_P2
2022/11/23 00:01:27;;;;;;;16.25;3.50;;;;;;;7.99;100.00;99512.00;5133544;28;20031;-64
2022/11/23 00:03:55;;;;;;;14.25;3.85;;;;;;;8.02;100.00;99521.66;5133909;27;20072;-64
2022/11/23 00:06:21;;;;;;;14.52;3.67;;;;;;;7.98;100.00;99514.66;5133497;27;20030;-64
2022/11/23 00:08:48;;;;;;;10.77;3.47;;;;;;;8.00;100.00;99520.78;5133540;27;20114;-64
2022/11/23 00:11:13;;;;;;;8.98;3.65;;;;;;;8.02;100.00;99513.78;5133494;27;20175;-64
2022/11/23 00:13:39;;;;;;;14.90;3.72;;;;;;;8.03;100.00;99521.66;5133330;27;20459;-64
2022/11/23 00:16:07;;;;;;;12.07;3.75;;;;;;;8.02;100.00;99519.91;5133422;28;20102;-64
2022/11/23 00:18:32;;;;;;;15.68;3.72;;;;;;;8.04;100.00;99525.16;5134014;27;20499;-64
2022/11/23 00:20:58;;;;;;;9.02;3.33;;;;;;;8.04;100.00;99526.03;5137413;27;20027;-64
2022/11/23 00:23:23;;;;;;;11.02;3.38;;;;;;;8.05;100.00;99524.31;5137171;27;20072;-64
2022/11/23 00:25:48;;;;;;;16.17;3.85;;;;;;;8.02;100.00;99519.03;5137509;27;20488;-64
2022/11/23 00:28:14;;;;;;;13.55;3.42;;;;;;;8.06;100.00;99536.56;5137039;27;20415;-64
2022/11/23 00:30:39;;;;;;;11.55;3.45;;;;;;;8.06;100.00;99528.69;5137130;27;20027;-64
2022/11/23 00:33:05;;;;;;;12.20;3.40;;;;;;;8.05;100.00;99526.94;5137009;27;20430;-64
2022/11/23 00:35:30;;;;;;;10.95;3.17;;;;;;;8.06;100.00;99533.94;5137061;27;20031;-64
2022/11/23 00:37:55;;;;;;;11.95;3.30;;;;;;;8.06;100.00;99533.06;5137240;27;20024;-64
2022/11/23 00:40:21;;;;;;;12.98;3.40;;;;;;;8.08;100.00;99534.78;5136820;27;20023;-64
2022/11/23 00:42:46;;;;;;;12.32;3.40;;;;;;;8.08;100.00;99542.69;5136575;27;20043;-64
2022/11/23 00:45:11;;;;;;;20.88;3.40;;;;;;;8.10;100.00;99551.47;5136890;27;20498;-64
2022/11/23 00:47:37;;;;;;;9.35;3.20;;;;;;;8.16;100.00;99547.97;5135296;27;20042;-64
2022/11/23 00:50:02;;;;;;;12.30;3.08;;;;;;;8.12;100.00;99543.56;5137018;27;20020;-64
2022/11/23 00:52:28;;;;;;;14.23;3.35;;;;;;;8.12;100.00;99541.81;5136578;27;20029;-63
2022/11/23 00:54:53;;;;;;;10.13;3.28;;;;;;;8.15;100.00;99540.94;5136521;27;20031;-64
2022/11/23 00:57:18;;;;;;;11.68;3.05;;;;;;;8.13;100.00;99540.06;5136627;27;20023;-63
2022/11/23 00:59:44;;;;;;;14.90;3.10;;;;;;;8.15;100.00;99547.09;5136586;27;20054;-63
2022/11/23 01:02:10;;;;;;;9.10;2.70;;;;;;;8.14;100.00;99547.09;5136687;27;20081;-63
2022/11/23 01:04:37;;;;;;;12.77;3.00;;;;;;;8.14;100.00;99540.06;5136606;27;20095;-63
2022/11/23 01:07:03;;;;;;;11.77;3.05;;;;;;;8.14;100.00;99544.47;5136628;27;20024;-63
2022/11/23 01:09:28;;;;;;;14.18;3.10;;;;;;;8.13;100.00;99542.69;5136137;27;20058;-63
2022/11/23 01:11:54;;;;;;;9.05;2.90;;;;;;;8.14;100.00;99542.72;5136249;27;20045;-64
2022/11/23 01:14:21;;;;;;;11.82;2.80;;;;;;;8.12;100.00;99548.84;5136260;27;20046;-63
2022/11/23 01:16:46;;;;;;;12.68;3.40;;;;;;;8.16;100.00;99545.31;5136330;27;20031;-63
2022/11/23 01:19:19;;;;;;;10.10;3.08;;;;;;;8.11;100.00;99555.84;5134934;27;20373;-64
2022/11/23 01:21:45;;;;;;;13.23;3.40;;;;;;;8.11;100.00;99549.72;5136163;27;20023;-63
2022/11/23 01:24:14;;;;;;;12.45;2.90;;;;;;;8.09;100.00;99546.19;5136444;27;20019;-64
2022/11/23 01:26:40;;;;;;;12.20;3.10;;;;;;;8.09;100.00;99556.72;5136007;27;20019;-63
2022/11/23 01:29:05;;;;;;;10.68;3.22;;;;;;;8.07;100.00;99554.09;5135593;27;20460;-63
2022/11/23 01:31:31;;;;;;;10.25;3.03;;;;;;;8.08;100.00;99558.47;5135921;27;20052;-63
2022/11/23 01:33:59;;;;;;;11.43;2.83;;;;;;;8.10;100.00;99562.00;5135865;27;20382;-63
2022/11/23 01:36:27;;;;;;;11.52;2.88;;;;;;;8.10;100.00;99564.63;5135782;27;20067;-64
2022/11/23 01:38:52;;;;;;;11.80;2.70;;;;;;;8.09;100.00;99565.47;5135852;27;20035;-64
2022/11/23 01:41:25;;;;;;;11.40;2.90;;;;;;;8.04;100.00;99559.34;5135650;27;20052;-63
2022/11/23 01:43:51;;;;;;;11.52;2.67;;;;;;;8.10;100.00;99571.66;5135670;27;20524;-63
2022/11/23 01:46:17;;;;;;;13.90;3.00;;;;;;;8.09;100.00;99567.25;5135703;27;20046;-63
2022/11/23 01:48:52;;;;;;;9.38;2.63;;;;;;;8.10;100.00;99572.53;5135681;27;20035;-63
2022/11/23 01:51:40;;;;;;;11.88;2.63;;;;;;;8.11;100.00;99583.91;5135808;27;20027;-63
2022/11/23 01:54:12;;;;;;;13.23;3.00;;;;;;;8.09;100.00;99569.88;5135065;27;20039;-63
2022/11/23 01:56:52;;;;;;;13.63;3.03;;;;;;;8.13;100.00;99574.25;5135716;27;20047;-63
2022/11/23 01:59:19;;;;;;;10.50;3.00;;;;;;;8.13;99.99;99574.25;5135477;27;20035;-63
2022/11/23 02:01:44;;;;;;;13.32;3.10;;;;;;;8.11;99.66;99576.91;5135272;27;20492;-63
2022/11/23 02:04:25;;;;;;;13.55;3.13;;;;;;;8.10;100.00;99576.91;5135324;27;20031;-63
2022/11/23 02:06:51;;;;;;;11.65;2.80;;;;;;;8.12;98.89;99585.66;5134272;27;20426;-63
2022/11/23 02:09:18;;;;;;;9.98;2.70;;;;;;;8.16;98.72;99590.94;5133887;27;20457;-63
2022/11/23 02:11:44;;;;;;;12.23;3.35;;;;;;;8.16;99.23;99590.06;5134989;27;20023;-64
2022/11/23 02:14:09;;;;;;;8.68;2.58;;;;;;;8.16;98.58;99588.28;5135152;27;20027;-63
2022/11/23 02:16:36;;;;;;;8.60;2.67;;;;;;;8.17;98.72;99595.31;5135092;27;20027;-63
2022/11/23 02:19:03;;;;;;;12.98;3.20;;;;;;;8.18;98.66;99594.47;5134049;27;20035;-63
2022/11/23 02:21:28;;;;;;;12.65;3.00;;;;;;;8.20;98.19;99594.44;5135050;27;20392;-63
2022/11/23 02:23:59;;;;;;;8.80;2.72;;;;;;;8.20;98.43;99595.31;5134947;27;20027;-63
2022/11/23 02:26:28;;;;;;;8.98;2.53;;;;;;;8.18;98.42;99591.81;5134836;27;20444;-63
2022/11/23 02:29:20;;;;;;;13.32;3.08;;;;;;;8.20;97.81;99589.19;5135036;27;20098;-62
2022/11/23 02:31:45;;;;;;;14.68;3.17;;;;;;;8.20;98.55;99597.94;5135172;27;20023;-64
2022/11/23 02:34:10;;;;;;;13.82;2.80;;;;;;;8.22;97.75;99600.56;5134826;27;20026;-63
2022/11/23 02:36:45;;;;;;;14.30;2.70;;;;;;;8.22;97.88;99596.22;5134638;27;20059;-63
2022/11/23 02:39:22;;;;;;;8.50;2.60;;;;;;;8.23;97.84;99597.09;5134611;27;20153;-63
2022/11/23 02:41:51;;;;;;;11.55;2.83;;;;;;;8.17;98.51;99595.31;5133537;27;20076;-63
2022/11/23 02:44:22;;;;;;;9.63;2.60;;;;;;;8.19;97.92;99598.84;5134337;27;20487;-63
2022/11/23 02:46:47;;;;;;;14.57;3.08;;;;;;;8.21;97.69;99601.44;5134846;27;20047;-64
2022/11/23 02:49:13;;;;;;;16.63;3.47;;;;;;;8.21;97.93;99604.09;5134228;27;20048;-62
2022/11/23 02:51:38;;;;;;;11.82;2.95;;;;;;;8.21;97.96;99597.06;5134436;27;20035;-63
2022/11/23 02:54:04;;;;;;;12.85;2.97;;;;;;;8.20;98.68;99599.72;5134590;27;20016;-63
2022/11/23 02:56:29;;;;;;;12.20;2.67;;;;;;;8.20;99.10;99605.84;5134279;27;20052;-63
2022/11/23 02:58:54;;;;;;;15.05;3.33;;;;;;;8.18;99.15;99609.34;5134202;27;20434;-62
2022/11/23 03:01:20;;;;;;;16.88;3.00;;;;;;;8.18;99.41;99607.63;5134517;27;20015;-63
2022/11/23 03:03:45;;;;;;;11.93;3.03;;;;;;;8.18;99.13;99601.44;5134631;27;20380;-62
2022/11/23 03:06:10;;;;;;;16.80;3.30;;;;;;;8.17;99.82;99608.47;5134085;27;20027;-62
2022/11/23 03:08:36;;;;;;;10.13;3.00;;;;;;;8.16;99.82;99609.34;5133986;27;20064;-62
2022/11/23 03:11:01;;;;;;;13.65;3.30;;;;;;;8.14;99.95;99603.22;5134108;27;20030;-62
2022/11/23 03:13:27;;;;;;;14.60;2.90;;;;;;;8.15;100.00;99609.34;5132636;27;20023;-62
2022/11/23 03:15:55;;;;;;;16.75;3.00;;;;;;;8.15;100.00;99609.34;5133870;27;20395;-62
2022/11/23 03:18:21;;;;;;;12.55;2.95;;;;;;;8.16;99.69;99617.25;5134070;27;20035;-63
2022/11/23 03:20:47;;;;;;;12.02;3.00;;;;;;;8.17;99.41;99610.22;5134070;27;20518;-62
2022/11/23 03:23:12;;;;;;;12.88;3.03;;;;;;;8.16;99.44;99611.97;5133874;27;20388;-62
2022/11/23 03:25:37;;;;;;;18.95;3.55;;;;;;;8.16;99.13;99611.09;5133920;27;20023;-62
2022/11/23 03:28:03;;;;;;;12.30;3.30;;;;;;;8.16;99.40;99614.59;5133735;27;20037;-62
2022/11/23 03:30:30;;;;;;;11.88;2.90;;;;;;;8.14;99.45;99611.13;5133883;27;20114;-65
2022/11/23 03:32:55;;;;;;;12.65;3.03;;;;;;;8.14;99.54;99615.50;5132943;28;20032;-62
2022/11/23 03:35:21;;;;;;;12.15;2.78;;;;;;;8.13;98.89;99608.47;5133898;27;20023;-64
2022/11/23 03:37:46;;;;;;;16.38;3.00;;;;;;;8.11;98.84;99611.09;5133813;27;20065;-62
2022/11/23 03:40:12;;;;;;;12.73;3.05;;;;;;;8.11;98.91;99615.50;5132542;28;20031;-62
2022/11/23 03:42:39;;;;;;;11.10;3.00;;;;;;;8.09;98.57;99615.47;5133376;27;20151;-62
2022/11/23 03:45:05;;;;;;;9.40;3.20;;;;;;;8.08;98.66;99613.72;5134100;27;20385;-62
2022/11/23 03:47:30;;;;;;;13.65;3.38;;;;;;;8.07;98.40;99611.97;5133621;27;20023;-63
2022/11/23 03:49:56;;;;;;;8.75;2.72;;;;;;;8.07;98.83;99611.09;5132236;28;20020;-63
2022/11/23 03:52:21;;;;;;;14.73;3.10;;;;;;;8.05;98.87;99611.13;5134023;27;20019;-62
2022/11/23 03:54:47;;;;;;;15.93;3.10;;;;;;;8.07;98.00;99616.38;5137847;27;20062;-62
2022/11/23 03:57:12;;;;;;;18.90;3.42;;;;;;;8.07;98.27;99613.72;5137749;27;20031;-62
2022/11/23 03:59:38;;;;;;;14.57;3.13;;;;;;;8.06;97.73;99611.97;5137777;27;20126;-62
2022/11/23 04:02:03;;;;;;;14.65;3.00;;;;;;;8.07;97.36;99616.38;5137656;27;20106;-62
2022/11/23 04:04:29;;;;;;;12.45;3.08;;;;;;;8.05;96.99;99613.75;5137680;27;20027;-62
2022/11/23 04:06:54;;;;;;;10.50;2.83;;;;;;;8.07;97.10;99606.72;5137628;27;20051;-62
2022/11/23 04:09:19;;;;;;;15.02;3.08;;;;;;;8.07;97.48;99619.00;5137684;27;20041;-63
2022/11/23 04:11:45;;;;;;;13.70;3.40;;;;;;;8.07;97.42;99619.88;5137348;27;20407;-62
2022/11/23 04:14:10;;;;;;;13.60;3.03;;;;;;;8.07;97.21;99616.38;5137496;27;20023;-62
2022/11/23 04:16:35;;;;;;;15.45;3.20;;;;;;;8.05;96.95;99626.91;5137475;27;20114;-62
2022/11/23 04:19:01;;;;;;;11.45;3.03;;;;;;;8.06;96.49;99620.75;5137458;27;20024;-63
2022/11/23 04:21:26;;;;;;;17.33;3.88;;;;;;;8.04;96.90;99615.47;5137623;27;20023;-62
2022/11/23 04:23:51;;;;;;;12.60;2.80;;;;;;;8.07;97.02;99616.38;5137448;27;20051;-62
2022/11/23 04:26:17;;;;;;;10.57;2.75;;;;;;;8.08;96.45;99618.09;5137318;27;20050;-62
2022/11/23 04:28:42;;;;;;;12.13;3.42;;;;;;;8.10;96.34;99613.75;5137240;27;20124;-63
2022/11/23 04:31:07;;;;;;;15.10;3.03;;;;;;;8.09;95.63;99617.22;5137229;27;20046;-62
2022/11/23 04:33:33;;;;;;;12.15;3.15;;;;;;;8.10;96.25;99613.75;5137376;27;20031;-63
2022/11/23 04:35:58;;;;;;;16.42;3.40;;;;;;;8.11;95.74;99612.84;5137153;27;20023;-63
2022/11/23 04:38:24;;;;;;;10.50;2.78;;;;;;;8.12;94.50;99618.13;5135757;27;20031;-62
2022/11/23 04:40:49;;;;;;;14.75;3.25;;;;;;;8.14;95.19;99613.75;5136937;27;20027;-62
2022/11/23 04:43:15;;;;;;;11.70;2.83;;;;;;;8.13;94.55;99613.72;5136603;27;20093;-63
2022/11/23 04:45:40;;;;;;;14.55;2.92;;;;;;;8.13;94.26;99616.34;5137082;27;20048;-62
2022/11/23 04:48:06;;;;;;;12.52;3.33;;;;;;;8.12;94.33;99612.84;5135574;27;20376;-63
2022/11/23 04:50:33;;;;;;;16.23;3.10;;;;;;;8.13;94.06;99621.63;5135603;27;20033;-63
2022/11/23 04:52:59;;;;;;;13.40;2.88;;;;;;;8.12;94.35;99628.63;5136674;27;20056;-63
2022/11/23 04:55:25;;;;;;;13.98;3.30;;;;;;;8.11;94.07;99621.63;5136809;27;20019;-62
2022/11/23 04:57:50;;;;;;;10.93;2.90;;;;;;;8.13;93.80;99619.00;5136585;27;20075;-63
2022/11/23 05:00:16;;;;;;;14.68;2.78;;;;;;;8.12;93.58;99625.13;5136528;27;20038;-62
2022/11/23 05:02:41;;;;;;;19.20;3.65;;;;;;;8.11;93.06;99618.13;5136525;27;20114;-62
2022/11/23 05:05:07;;;;;;;15.40;3.17;;;;;;;8.11;93.16;99620.75;5135574;27;20027;-63
2022/11/23 05:07:32;;;;;;;16.38;3.30;;;;;;;8.06;93.25;99611.97;5136423;27;20023;-63
2022/11/23 05:09:58;;;;;;;15.70;2.95;;;;;;;8.03;93.04;99612.84;5136500;27;20036;-63
2022/11/23 05:12:23;;;;;;;14.98;3.03;;;;;;;7.97;92.56;99611.09;5134887;27;20037;-62
2022/11/23 05:14:48;;;;;;;13.63;2.95;;;;;;;7.94;93.06;99610.22;5136368;27;20027;-62
2022/11/23 05:17:14;;;;;;;16.95;3.17;;;;;;;7.88;92.95;99611.09;5135004;27;20497;-63
2022/11/23 05:19:39;;;;;;;18.65;3.58;;;;;;;7.86;92.99;99604.06;5136238;27;20031;-62
2022/11/23 05:22:04;;;;;;;13.15;3.00;;;;;;;7.83;92.91;99611.94;5136185;27;20054;-63
2022/11/23 05:24:30;;;;;;;17.50;3.97;;;;;;;7.78;92.87;99607.53;5134947;27;20472;-62
2022/11/23 05:26:55;;;;;;;18.15;3.17;;;;;;;7.72;93.62;99612.81;5136031;27;20381;-62
2022/11/23 05:29:20;;;;;;;17.42;3.45;;;;;;;7.72;93.78;99607.53;5136013;27;20023;-62
2022/11/23 05:31:46;;;;;;;15.32;3.17;;;;;;;7.72;93.83;99615.44;5135827;27;20031;-62
2022/11/23 05:34:11;;;;;;;16.67;3.65;;;;;;;7.70;93.70;99613.66;5135910;27;20480;-62
2022/11/23 05:36:37;;;;;;;15.75;3.40;;;;;;;7.70;92.90;99618.91;5135827;27;20077;-63
2022/11/23 05:39:02;;;;;;;18.52;3.78;;;;;;;7.71;93.27;99610.19;5135663;27;20114;-64
2022/11/23 05:41:28;;;;;;;18.58;3.03;;;;;;;7.71;93.56;99623.31;5135864;27;20055;-62
2022/11/23 05:43:53;;;;;;;12.02;3.33;;;;;;;7.71;93.55;99608.41;5135251;27;20134;-62
2022/11/23 05:46:18;;;;;;;12.45;3.25;;;;;;;7.69;93.26;99612.78;5135552;27;20027;-62
2022/11/23 05:48:44;;;;;;;17.48;3.42;;;;;;;7.69;93.34;99615.41;5135452;27;20477;-62
2022/11/23 05:51:09;;;;;;;16.92;3.15;;;;;;;7.69;92.88;99610.16;5135520;27;20023;-63
2022/11/23 05:53:35;;;;;;;14.75;2.97;;;;;;;7.69;92.99;99620.66;5135679;27;20019;-63
2022/11/23 05:56:01;;;;;;;18.98;3.55;;;;;;;7.71;92.46;99620.69;5135550;27;20023;-62
2022/11/23 05:58:27;;;;;;;19.75;4.00;;;;;;;7.69;92.37;99618.03;5135636;27;20046;-62
2022/11/23 06:00:56;;;;;;;11.50;3.28;;;;;;;7.66;92.89;99622.41;5134214;27;20472;-62
2022/11/23 06:03:22;;;;;;;16.60;3.55;;;;;;;7.68;92.56;99618.06;5134927;27;20384;-62
2022/11/23 06:05:47;;;;;;;12.15;3.20;;;;;;;7.69;93.43;99619.78;5135366;27;20027;-62
2022/11/23 06:08:12;;;;;;;16.90;3.33;;;;;;;7.68;93.20;99618.91;5135407;27;20408;-62
2022/11/23 06:10:38;;;;;;;14.32;3.70;;;;;;;7.67;93.32;99618.94;5133934;27;20559;-63
2022/11/23 06:13:04;;;;;;;12.68;3.38;;;;;;;7.65;93.10;99618.03;5135441;27;20020;-62
2022/11/23 06:15:29;;;;;;;12.80;3.03;;;;;;;7.64;93.20;99614.53;5135097;27;20031;-62
2022/11/23 06:17:59;;;;;;;13.88;3.10;;;;;;;7.64;93.28;99616.28;5135090;27;20023;-62
2022/11/23 06:20:24;;;;;;;11.02;3.10;;;;;;;7.64;93.49;99626.78;5135006;27;20053;-62
2022/11/23 06:22:53;;;;;;;14.57;3.00;;;;;;;7.63;93.51;99622.41;5135009;27;20023;-62
2022/11/23 06:25:19;;;;;;;25.02;3.88;;;;;;;7.65;93.83;99628.53;5134949;27;20481;-62
2022/11/23 06:27:59;;;;;;;15.60;3.30;;;;;;;7.66;92.87;99630.28;5134891;27;20072;-62
2022/11/23 06:30:26;;;;;;;20.60;3.63;;;;;;;7.65;93.07;99621.53;5134852;27;20027;-62
2022/11/23 06:32:51;;;;;;;18.63;4.13;;;;;;;7.66;93.09;99627.66;5134720;27;20055;-62
2022/11/23 06:35:17;;;;;;;14.95;3.47;;;;;;;7.64;93.52;99622.41;5135058;27;20066;-62
2022/11/23 06:37:42;;;;;;;23.63;3.50;;;;;;;7.66;94.11;99641.69;5134911;27;20403;-63
2022/11/23 06:40:09;;;;;;;14.95;3.33;;;;;;;7.63;94.14;99640.81;5134722;27;20023;-63
2022/11/23 06:42:35;;;;;;;15.52;3.10;;;;;;;7.58;94.88;99626.75;5134452;27;20023;-62
2022/11/23 06:45:00;;;;;;;13.70;3.22;;;;;;;7.56;95.49;99628.53;5133263;27;20036;-62
2022/11/23 06:47:27;;;;;;;20.63;3.30;;;;;;;7.54;94.79;99625.91;5134499;27;20053;-62
2022/11/23 06:49:52;;;;;;;14.73;3.03;;;;;;;7.55;95.21;99635.53;5134375;27;20039;-63
2022/11/23 06:52:18;;;;;;;19.50;3.33;;;;;;;7.53;94.58;99640.75;5134448;27;20110;-62
2022/11/23 06:54:43;;;;;;;15.65;3.10;;;;;;;7.55;94.69;99646.03;5134433;27;20027;-62
2022/11/23 06:57:09;;;;;;;16.48;2.95;;;;;;;7.56;93.82;99637.28;5134648;27;20030;-62
2022/11/23 06:59:34;;;;;;;15.15;2.92;;;;;;;7.58;93.59;99653.94;5134575;27;20138;-62
2022/11/23 07:02:00;;;;;;;10.98;2.70;;;;;;;7.58;93.63;99653.03;5134283;27;20088;-62
2022/11/23 07:04:25;;;;;;;18.02;3.40;;;;;;;7.55;93.45;99659.19;5134305;27;20031;-62
2022/11/23 07:06:50;;;;;;;15.60;3.15;;;;;;;7.58;93.08;99663.56;5134250;27;20023;-62
2022/11/23 07:09:16;;;;;;;17.50;3.67;;;;;;;7.57;92.75;99677.59;5134084;27;20029;-62
2022/11/23 07:11:41;;;;;;;14.18;3.20;;;;;;;7.59;92.35;99667.97;5134344;27;20315;-62
2022/11/23 07:14:07;;;;;;;15.52;3.58;;;;;;;7.58;92.03;99671.44;5132710;27;20034;-62
2022/11/23 07:16:32;;;;;;;17.65;3.65;;;;;;;7.58;92.14;99675.00;5133981;27;20034;-62
2022/11/23 07:18:58;;;;;;;15.88;3.17;;;;;;;7.58;92.45;99669.72;5133999;27;20079;-62
2022/11/23 07:21:23;;;;;;;13.50;3.20;;;;;;;7.56;92.03;99684.59;5133938;27;20058;-62
2022/11/23 07:23:48;;;;;;;14.48;3.40;;;;;;;7.57;92.01;99682.84;5134321;27;20035;-62
2022/11/23 07:26:14;;;;;;;14.98;3.05;;;;;;;7.57;91.11;99696.00;5133910;27;20023;-62
2022/11/23 07:28:39;;;;;;;17.17;3.40;;;;;;;7.53;91.88;99688.06;5133467;27;20031;-62
2022/11/23 07:31:05;;;;;;;21.38;3.25;;;;;;;7.53;91.42;99692.47;5133834;27;20041;-63
2022/11/23 07:33:30;;;;;;;11.18;3.15;;;;;;;7.52;90.98;99688.09;5134090;27;20054;-62
2022/11/23 07:35:59;;;;;;;17.10;3.28;;;;;;;7.47;91.10;99690.69;5133853;27;20477;-62
2022/11/23 07:38:24;;;;;;;19.23;3.05;;;;;;;7.47;90.95;99687.19;5133747;27;20536;-62
2022/11/23 07:40:50;;;;;;;17.25;3.42;;;;;;;7.47;90.74;99698.56;5134114;27;20106;-63
2022/11/23 07:43:15;;;;;;;17.40;3.50;;;;;;;7.49;90.29;99707.38;5133323;27;20488;-61
2022/11/23 07:45:41;;;;;;;17.05;3.65;;;;;;;7.52;91.07;99704.72;5133731;28;20110;-62
2022/11/23 07:48:08;;;;;;;13.35;2.72;;;;;;;7.51;89.76;99697.72;5133640;27;20036;-61
2022/11/23 07:50:36;;;;;;;11.60;3.05;;;;;;;7.51;89.50;99710.88;5133644;27;20440;-62
2022/11/23 07:53:02;;;;;;;13.52;2.67;;;;;;;7.52;89.92;99712.63;5132310;28;20034;-62
2022/11/23 07:55:29;;;;;;;14.23;2.95;;;;;;;7.57;89.36;99719.66;5133626;27;20065;-61
2022/11/23 07:57:55;;;;;;;15.00;3.90;;;;;;;7.62;88.61;99710.03;5133852;27;20051;-62
2022/11/23 08:00:22;;;;;;;15.65;3.05;;;;;;;7.73;88.51;99729.38;5133566;27;20023;-62
2022/11/23 08:02:47;;;;;;;14.48;3.10;;;;;;;7.86;88.29;99725.91;5133572;27;20424;-62
2022/11/23 08:05:14;;;;;;;16.52;3.20;;;;;;;7.97;87.94;99721.56;5133870;27;20165;-62
2022/11/23 08:07:39;;;;;;;14.00;3.15;;;;;;;8.08;85.76;99721.59;5133698;27;20027;-62
2022/11/23 08:10:05;;;;;;;12.32;3.10;;;;;;;8.18;85.95;99725.13;5133509;27;20513;-62
2022/11/23 08:12:31;;;;;;;14.93;2.78;;;;;;;8.27;85.34;99733.06;5132045;28;20114;-62
2022/11/23 08:14:56;;;;;;;15.32;3.00;;;;;;;8.35;84.60;99726.06;5133729;27;20038;-62
2022/11/23 08:17:21;;;;;;;10.27;2.90;;;;;;;8.43;83.84;99719.06;5133701;28;20020;-62
2022/11/23 08:19:47;;;;;;;17.52;3.30;;;;;;;8.49;83.14;99721.72;5133280;28;20102;-62
2022/11/23 08:22:12;;;;;;;15.93;3.15;;;;;;;8.58;82.53;99731.38;5133901;28;20106;-62
2022/11/23 08:24:38;;;;;;;9.10;3.00;;;;;;;8.68;83.31;99725.22;5133290;27;20476;-62
2022/11/23 08:27:03;;;;;;;13.93;3.15;;;;;;;8.79;81.69;99733.16;5133310;28;20149;-62
2022/11/23 08:29:29;;;;;;;14.15;3.10;;;;;;;8.87;81.26;99735.78;5133273;27;20019;-62
2022/11/23 08:31:55;;;;;;;13.57;3.05;;;;;;;8.97;80.98;99722.59;5133480;28;20464;-62
2022/11/23 08:34:20;;;;;;;16.15;2.95;;;;;;;9.06;80.06;99734.00;5133123;28;20368;-62
2022/11/23 08:36:46;;;;;;;18.83;3.42;;;;;;;9.14;80.15;99740.16;5133330;27;20023;-62
2022/11/23 08:39:13;;;;;;;16.20;3.25;;;;;;;9.19;78.84;99739.25;5133583;27;20031;-62
2022/11/23 08:41:39;;;;;;;13.70;3.22;;;;;;;9.28;78.39;99733.09;5135708;27;20055;-62
2022/11/23 08:44:07;;;;;;;15.35;2.78;;;;;;;9.37;78.19;99735.69;5136480;27;20096;-61
2022/11/23 08:46:32;;;;;;;16.52;3.38;;;;;;;9.36;77.19;99755.03;5136813;27;20035;-62
2022/11/23 08:48:58;;;;;;;12.70;3.10;;;;;;;9.41;77.50;99749.75;5136814;27;20034;-62
2022/11/23 08:51:23;;;;;;;11.93;3.03;;;;;;;9.51;77.46;99743.59;5136870;27;20106;-62
2022/11/23 08:53:49;;;;;;;10.80;2.70;;;;;;;9.66;76.27;99735.63;5136703;27;20060;-61
2022/11/23 08:56:14;;;;;;;12.25;3.28;;;;;;;9.91;76.52;99733.75;5136937;27;20024;-62
2022/11/23 08:58:40;;;;;;;15.13;3.10;;;;;;;10.23;74.50;99735.34;5136931;27;20496;-62
2022/11/23 09:01:10;;;;;;;15.68;3.40;;;;;;;10.62;72.85;99734.28;5136643;27;20034;-62
2022/11/23 09:03:36;;;;;;;11.75;2.72;;;;;;;10.99;71.75;99729.53;5136599;27;20468;-62
2022/11/23 09:06:02;;;;;;;14.48;2.83;;;;;;;11.21;70.37;99722.28;5136635;27;20058;-62
2022/11/23 09:08:28;;;;;;;11.07;2.90;;;;;;;11.29;69.96;99722.22;5136343;27;20047;-63
2022/11/23 09:10:53;;;;;;;15.20;3.33;;;;;;;11.46;68.75;99738.78;5136493;27;20019;-62
2022/11/23 09:13:19;;;;;;;11.63;3.17;;;;;;;11.58;67.52;99724.53;5136334;27;20024;-62
2022/11/23 09:15:44;;;;;;;9.95;2.60;;;;;;;11.70;67.07;99729.69;5136096;27;20057;-62
2022/11/23 09:18:10;;;;;;;10.02;2.70;;;;;;;11.91;66.74;99718.00;5136226;27;20314;-62
2022/11/23 09:20:38;;;;;;;10.48;2.70;;;;;;;11.90;66.38;99716.25;5134755;27;20095;-62
2022/11/23 09:23:04;;;;;;;11.80;2.88;;;;;;;11.99;65.84;99715.25;5136104;27;20032;-62
2022/11/23 09:25:29;;;;;;;8.95;2.70;;;;;;;12.04;64.74;99713.44;5136149;27;20102;-62
2022/11/23 09:27:58;;;;;;;11.25;3.55;;;;;;;11.73;65.39;99708.50;5136040;27;20020;-62
2022/11/23 09:30:24;;;;;;;17.00;3.13;;;;;;;11.63;66.35;99703.31;5136276;27;20026;-62
2022/11/23 09:32:49;;;;;;;15.27;2.83;;;;;;;11.35;66.93;99700.09;5135375;27;20239;-62
2022/11/23 09:35:15;;;;;;;12.40;2.97;;;;;;;11.05;67.45;99704.84;5135833;27;20488;-62
2022/11/23 09:37:40;;;;;;;12.23;3.00;;;;;;;10.86;68.50;99706.75;5135862;27;20078;-62
2022/11/23 09:40:06;;;;;;;10.30;3.17;;;;;;;10.74;68.47;99699.81;5135814;27;20020;-61
2022/11/23 09:42:50;;;;;;;16.15;3.05;;;;;;;10.70;69.05;99682.22;5135873;27;20031;-61
2022/11/23 09:45:27;;;;;;;13.38;2.97;;;;;;;10.70;69.12;99692.78;5135484;27;20184;-61
2022/11/23 09:47:55;;;;;;;11.63;3.00;;;;;;;10.72;69.69;99690.16;5135776;27;20032;-62
2022/11/23 09:50:21;;;;;;;14.90;2.88;;;;;;;10.69;69.27;99692.81;5135582;27;20035;-62
2022/11/23 09:52:49;;;;;;;10.55;2.92;;;;;;;10.64;69.54;99684.94;5135527;27;20027;-62
2022/11/23 09:55:42;;;;;;;10.63;2.70;;;;;;;10.74;70.12;99681.31;5135469;27;20468;-62
2022/11/23 09:58:17;;;;;;;14.13;3.10;;;;;;;10.72;69.01;99661.97;5135615;27;20476;-62
2022/11/23 10:00:47;;;;;;;20.15;3.15;;;;;;;10.64;68.59;99673.50;5135398;27;20098;-62
2022/11/23 10:03:15;;;;;;;12.77;3.03;;;;;;;10.59;69.11;99665.59;5134098;27;20391;-62
2022/11/23 10:05:46;;;;;;;11.13;2.67;;;;;;;10.57;69.36;99664.72;5135580;27;20031;-62
2022/11/23 10:08:28;;;;;;;10.65;2.60;;;;;;;10.78;69.19;99671.59;5135287;27;20030;-61
2022/11/23 10:11:05;;;;;;;9.40;2.55;;;;;;;10.84;68.58;99649.53;5135448;27;20034;-61
2022/11/23 10:13:37;;;;;;;11.80;2.65;;;;;;;10.90;68.54;99652.13;5135425;27;20349;-62
2022/11/23 10:16:23;;;;;;;8.75;2.47;;;;;;;11.06;68.07;99642.28;5135254;27;20023;-62
2022/11/23 10:18:51;;;;;;;11.77;2.65;;;;;;;11.11;67.93;99645.72;5135134;27;20114;-62
2022/11/23 10:21:29;;;;;;;10.70;3.20;;;;;;;11.13;67.56;99638.66;5135084;27;20019;-62
2022/11/23 10:24:18;;;;;;;14.48;2.90;;;;;;;11.26;68.13;99643.81;5133735;27;20388;-62
2022/11/23 10:26:45;;;;;;;12.00;2.60;;;;;;;11.31;67.33;99640.22;5135244;27;20031;-62
2022/11/23 10:29:11;;;;;;;6.88;2.60;;;;;;;11.34;67.27;99627.81;5134755;27;20038;-62
2022/11/23 10:31:36;;;;;;;11.00;2.72;;;;;;;11.27;65.93;99647.31;5134923;27;20023;-61
2022/11/23 10:34:13;;;;;;;11.23;2.95;;;;;;;11.27;67.16;99639.38;5133573;27;20038;-62
2022/11/23 10:36:40;;;;;;;7.78;2.40;;;;;;;11.36;66.79;99627.81;5134784;27;20035;-62
2022/11/23 10:39:22;;;;;;;9.70;2.60;;;;;;;11.51;67.44;99632.91;5134889;27;20372;-62
2022/11/23 10:41:49;;;;;;;13.10;2.70;;;;;;;11.53;65.69;99636.44;5134940;27;20048;-62
2022/11/23 10:44:27;;;;;;;11.85;2.55;;;;;;;11.48;65.93;99636.50;5134223;27;20048;-62
2022/11/23 10:46:53;;;;;;;10.02;2.53;;;;;;;11.55;66.36;99642.56;5134891;27;20023;-62
2022/11/23 10:49:20;;;;;;;12.70;2.45;;;;;;;11.76;67.14;99638.75;5134471;27;20337;-62
2022/11/23 10:51:57;;;;;;;14.30;2.80;;;;;;;11.87;65.63;99628.94;5134666;27;20031;-62
2022/11/23 10:54:43;;;;;;;11.02;2.75;;;;;;;11.74;64.36;99637.94;5134585;27;20027;-62
2022/11/23 10:57:26;;;;;;;10.50;2.42;;;;;;;11.69;65.59;99638.00;5134386;27;20024;-62
2022/11/23 11:00:22;;;;;;;8.25;2.40;;;;;;;11.71;65.45;99627.38;5134271;27;20049;-62
2022/11/23 11:02:55;;;;;;;9.85;2.42;;;;;;;11.68;64.90;99614.16;5115907;27;20031;-62
2022/11/23 11:05:26;;;;;;;11.43;2.95;;;;;;;11.60;65.13;99608.97;5134305;27;20042;-61
2022/11/23 11:07:54;;;;;;;7.88;2.30;;;;;;;11.60;64.43;99616.91;5134347;27;20034;-62
2022/11/23 11:10:39;;;;;;;9.20;2.40;;;;;;;11.67;65.13;99615.94;5134314;27;20376;-62
2022/11/23 11:13:21;;;;;;;11.95;2.50;;;;;;;11.83;65.35;99602.53;5134009;27;20147;-62
2022/11/23 11:15:56;;;;;;;9.73;2.40;;;;;;;12.09;64.98;99607.44;5134343;27;20102;-62
2022/11/23 11:18:31;;;;;;;8.60;2.20;;;;;;;12.15;63.93;99602.03;5134200;27;20027;-61
2022/11/23 11:21:04;;;;;;;8.32;2.42;;;;;;;12.14;64.13;99598.53;5134047;27;20027;-61
2022/11/23 11:23:32;;;;;;;10.73;2.65;;;;;;;12.08;64.21;99593.34;5134493;27;20477;-61
2022/11/23 11:26:22;;;;;;;11.55;2.72;;;;;;;11.91;63.94;99608.59;5133920;27;20034;-61
2022/11/23 11:28:50;;;;;;;8.23;2.30;;;;;;;11.56;64.66;99603.75;5133887;27;20033;-62
2022/11/23 11:31:28;;;;;;;7.05;2.00;;;;;;;11.47;65.38;99596.81;5133831;27;20019;-61
2022/11/23 11:34:02;;;;;;;8.30;2.20;;;;;;;11.32;65.32;99589.97;5132628;27;20369;-61